createdAt,value
2024-02-24T00:01:54.793Z,7.79
2024-02-24T00:04:21.587Z,7.92
2024-02-24T00:06:48.341Z,8.05
2024-02-24T00:09:15.163Z,7.74
2024-02-24T00:11:41.941Z,7.65
2024-02-24T00:14:08.736Z,7.69
2024-02-24T00:16:35.495Z,7.52
2024-02-24T00:19:02.525Z,7.67
2024-02-24T00:21:29.519Z,7.84
2024-02-24T00:23:56.250Z,7.53
2024-02-24T00:26:23.242Z,7.69
2024-02-24T00:28:50.369Z,7.14
2024-02-24T00:31:17.944Z,7.28
2024-02-24T00:33:45.117Z,7.04
2024-02-24T00:36:12.157Z,7.10
2024-02-24T00:38:39.573Z,7.39
2024-02-24T00:41:06.377Z,7.66
2024-02-24T00:43:33.043Z,7.71
2024-02-24T00:46:00.643Z,7.44
2024-02-24T00:48:29.234Z,7.71
2024-02-24T00:50:56.183Z,7.58
2024-02-24T00:53:23.634Z,7.34
2024-02-24T00:55:51.057Z,7.33
2024-02-24T00:58:17.747Z,7.51
2024-02-24T01:00:44.675Z,7.58
2024-02-24T01:03:11.392Z,7.77
2024-02-24T01:05:39.453Z,7.61
2024-02-24T01:08:06.650Z,7.83
2024-02-24T01:10:33.630Z,7.46
2024-02-24T01:13:01.190Z,7.60
2024-02-24T01:15:28.237Z,7.56
2024-02-24T01:17:58.362Z,7.37
2024-02-24T01:20:26.407Z,7.66
2024-02-24T01:22:54.985Z,7.34
2024-02-24T01:25:22.010Z,7.56
2024-02-24T01:27:50.658Z,7.74
2024-02-24T01:30:18.075Z,7.61
2024-02-24T01:32:45.006Z,7.78
2024-02-24T01:35:11.894Z,7.94
2024-02-24T01:37:38.665Z,7.74
2024-02-24T01:40:06.902Z,7.69
2024-02-24T01:42:34.104Z,7.70
2024-02-24T01:45:01.307Z,7.54
2024-02-24T01:47:29.803Z,7.69
2024-02-24T01:49:57.419Z,7.73
2024-02-24T01:52:25.915Z,7.84
2024-02-24T01:54:58.982Z,7.93
2024-02-24T01:57:28.060Z,7.73
2024-02-24T01:59:56.101Z,7.40
2024-02-24T02:02:23.502Z,7.58
2024-02-24T02:04:50.276Z,7.55
2024-02-24T02:07:17.543Z,7.60
2024-02-24T02:09:57.957Z,7.78
2024-02-24T02:12:26.042Z,7.59
2024-02-24T02:14:53.817Z,7.71
2024-02-24T02:17:21.692Z,7.49
2024-02-24T02:19:49.181Z,7.25
2024-02-24T02:22:17.459Z,7.27
2024-02-24T02:24:45.950Z,7.27
2024-02-24T02:27:13.007Z,7.21
2024-02-24T02:29:39.810Z,7.33
2024-02-24T02:32:09.032Z,7.29
2024-02-24T02:34:36.220Z,7.29
2024-02-24T02:37:03.201Z,7.17
2024-02-24T02:39:30.102Z,7.17
2024-02-24T02:41:56.774Z,7.11
2024-02-24T02:44:24.416Z,7.08
2024-02-24T02:46:51.832Z,6.98
2024-02-24T02:49:19.516Z,6.98
2024-02-24T02:51:46.287Z,7.04
2024-02-24T02:54:13.061Z,6.96
2024-02-24T02:56:39.808Z,7.13
2024-02-24T02:59:06.933Z,7.14
2024-02-24T03:01:33.944Z,7.14
2024-02-24T03:04:00.713Z,7.30
2024-02-24T03:06:27.789Z,7.22
2024-02-24T03:08:56.892Z,7.15
2024-02-24T03:11:24.326Z,7.11
2024-02-24T03:13:51.105Z,7.07
2024-02-24T03:16:22.051Z,7.02
2024-02-24T03:18:50.174Z,7.03
2024-02-24T03:21:28.330Z,6.94
2024-02-24T03:23:56.525Z,6.72
2024-02-24T03:26:23.403Z,6.46
2024-02-24T03:28:50.200Z,6.59
2024-02-24T03:31:17.439Z,6.72
2024-02-24T03:33:44.192Z,6.80
2024-02-24T03:36:17.799Z,6.69
2024-02-24T03:38:44.925Z,6.73
2024-02-24T03:41:12.201Z,6.74
2024-02-24T03:43:39.636Z,6.74
2024-02-24T03:46:07.491Z,6.93
2024-02-24T03:48:34.887Z,6.76
2024-02-24T03:51:03.234Z,6.75
2024-02-24T03:53:30.254Z,6.76
2024-02-24T03:55:57.206Z,6.81
2024-02-24T03:58:24.248Z,7.01
2024-02-24T04:00:52.322Z,6.90
2024-02-24T04:03:19.629Z,6.79
2024-02-24T04:05:47.941Z,6.57
2024-02-24T04:08:15.269Z,6.62
2024-02-24T04:10:44.464Z,6.55
2024-02-24T04:13:11.913Z,6.71
2024-02-24T04:15:38.641Z,6.75
2024-02-24T04:18:06.159Z,6.69
2024-02-24T04:20:33.182Z,6.49
2024-02-24T04:22:59.938Z,6.78
2024-02-24T04:25:26.680Z,7.05
2024-02-24T04:27:53.472Z,6.82
2024-02-24T04:30:20.185Z,6.90
2024-02-24T04:32:47.058Z,7.01
2024-02-24T04:35:14.223Z,7.03
2024-02-24T04:37:41.571Z,7.14
2024-02-24T04:40:09.053Z,7.03
2024-02-24T04:42:36.101Z,7.05
2024-02-24T04:45:03.079Z,6.84
2024-02-24T04:47:32.299Z,7.01
2024-02-24T04:49:59.361Z,6.80
2024-02-24T04:52:26.109Z,6.74
2024-02-24T04:54:53.198Z,6.82
2024-02-24T04:57:19.931Z,7.12
2024-02-24T04:59:46.801Z,6.93
2024-02-24T05:02:13.771Z,6.92
2024-02-24T05:04:40.722Z,6.98
2024-02-24T05:07:07.549Z,7.01
2024-02-24T05:09:34.329Z,7.26
2024-02-24T05:12:01.297Z,7.35
2024-02-24T05:14:28.067Z,7.36
2024-02-24T05:16:55.331Z,7.37
2024-02-24T05:19:22.454Z,7.11
2024-02-24T05:21:49.823Z,7.07
2024-02-24T05:24:17.802Z,7.24
2024-02-24T05:26:44.607Z,6.93
2024-02-24T05:29:12.040Z,6.80
2024-02-24T05:31:38.996Z,6.95
2024-02-24T05:34:06.345Z,6.87
2024-02-24T05:36:33.814Z,6.94
2024-02-24T05:39:00.502Z,6.88
2024-02-24T05:41:27.803Z,6.79
2024-02-24T05:43:54.501Z,6.74
2024-02-24T05:46:21.174Z,6.92
2024-02-24T05:48:48.260Z,6.79
2024-02-24T05:51:17.495Z,6.84
2024-02-24T05:53:44.256Z,6.57
2024-02-24T05:56:11.105Z,6.84
2024-02-24T05:58:37.781Z,6.68
2024-02-24T06:01:04.699Z,6.81
2024-02-24T06:03:31.566Z,6.95
2024-02-24T06:05:58.396Z,6.64
2024-02-24T06:08:25.425Z,6.83
2024-02-24T06:10:52.176Z,7.15
2024-02-24T06:13:19.076Z,7.02
2024-02-24T06:15:46.024Z,7.18
2024-02-24T06:18:12.905Z,6.98
2024-02-24T06:20:39.888Z,6.78
2024-02-24T06:23:07.745Z,6.63
2024-02-24T06:25:34.632Z,6.48
2024-02-24T06:28:01.694Z,6.60
2024-02-24T06:30:28.407Z,6.32
2024-02-24T06:32:55.368Z,6.77
2024-02-24T06:35:22.366Z,6.52
2024-02-24T06:37:49.327Z,6.29
2024-02-24T06:40:25.629Z,6.57
2024-02-24T06:42:56.752Z,6.43
2024-02-24T06:45:23.561Z,6.48
2024-02-24T06:47:50.486Z,6.37
2024-02-24T06:50:17.458Z,6.30
2024-02-24T06:52:44.375Z,6.54
2024-02-24T06:55:11.112Z,6.40
2024-02-24T06:57:37.819Z,6.36
2024-02-24T07:00:05.399Z,6.37
2024-02-24T07:02:32.489Z,6.50
2024-02-24T07:04:59.316Z,6.59
2024-02-24T07:07:26.476Z,6.89
2024-02-24T07:09:53.190Z,6.84
2024-02-24T07:12:20.225Z,6.52
2024-02-24T07:14:47.083Z,6.49
2024-02-24T07:17:14.373Z,6.60
2024-02-24T07:19:42.263Z,6.44
2024-02-24T07:22:09.250Z,6.31
2024-02-24T07:24:35.974Z,6.16
2024-02-24T07:27:02.895Z,6.24
2024-02-24T07:29:30.659Z,6.22
2024-02-24T07:31:57.671Z,6.37
2024-02-24T07:34:24.478Z,6.78
2024-02-24T07:36:51.243Z,6.77
2024-02-24T07:39:18.296Z,6.62
2024-02-24T07:41:45.108Z,6.68
2024-02-24T07:44:12.779Z,6.24
2024-02-24T07:46:39.580Z,6.52
2024-02-24T07:49:06.297Z,6.55
2024-02-24T07:51:33.201Z,6.77
2024-02-24T07:54:00.367Z,6.62
2024-02-24T07:56:28.493Z,7.06
2024-02-24T07:58:55.650Z,7.01
2024-02-24T08:01:22.562Z,7.09
2024-02-24T08:03:49.284Z,7.08
2024-02-24T08:06:16.173Z,6.98
2024-02-24T08:08:43.010Z,6.51
2024-02-24T08:11:09.722Z,6.73
2024-02-24T08:13:42.907Z,6.64
2024-02-24T08:16:10.378Z,6.88
2024-02-24T08:18:37.377Z,7.22
2024-02-24T08:21:08.106Z,7.45
2024-02-24T08:23:36.055Z,7.46
2024-02-24T08:26:03.073Z,7.83
2024-02-24T08:28:30.668Z,7.44
2024-02-24T08:30:57.530Z,6.96
2024-02-24T08:33:24.620Z,6.86
2024-02-24T08:35:52.064Z,7.44
2024-02-24T08:38:18.951Z,7.24
2024-02-24T08:40:45.955Z,8.13
2024-02-24T08:43:13.174Z,7.10
2024-02-24T08:45:40.009Z,7.63
2024-02-24T08:48:07.246Z,6.97
2024-02-24T08:50:34.274Z,6.97
2024-02-24T08:53:01.371Z,7.43
2024-02-24T08:55:28.299Z,7.46
2024-02-24T08:57:55.043Z,7.27
2024-02-24T09:00:22.226Z,7.17
2024-02-24T09:02:49.491Z,7.83
2024-02-24T09:05:17.123Z,7.67
2024-02-24T09:07:44.202Z,7.39
2024-02-24T09:10:11.108Z,7.40
2024-02-24T09:12:37.958Z,7.91
2024-02-24T09:15:05.260Z,7.81
2024-02-24T09:17:32.289Z,7.33
2024-02-24T09:19:58.999Z,8.08
2024-02-24T09:22:25.683Z,8.04
2024-02-24T09:24:52.414Z,8.45
2024-02-24T09:27:19.437Z,8.88
2024-02-24T09:29:49.142Z,8.93
2024-02-24T09:32:18.810Z,9.03
2024-02-24T09:34:46.444Z,8.66
2024-02-24T09:37:13.651Z,8.19
2024-02-24T09:39:41.920Z,8.51
2024-02-24T09:42:10.708Z,8.38
2024-02-24T09:44:39.798Z,8.80
2024-02-24T09:47:07.053Z,8.47
2024-02-24T09:49:34.472Z,8.23
2024-02-24T09:52:01.727Z,8.25
2024-02-24T09:54:29.017Z,9.25
2024-02-24T09:56:56.717Z,8.65
2024-02-24T09:59:26.225Z,8.68
2024-02-24T10:01:53.103Z,9.42
2024-02-24T10:04:20.292Z,9.27
2024-02-24T10:06:47.071Z,9.38
2024-02-24T10:09:14.042Z,8.79
2024-02-24T10:11:41.907Z,8.63
2024-02-24T10:14:09.640Z,8.67
2024-02-24T10:16:39.680Z,8.44
2024-02-24T10:19:07.369Z,8.47
2024-02-24T10:21:35.255Z,8.81
2024-02-24T10:24:06.171Z,8.54
2024-02-24T10:26:32.902Z,8.66
2024-02-24T10:28:59.679Z,8.66
2024-02-24T10:31:28.176Z,8.77
2024-02-24T10:33:56.092Z,8.77
2024-02-24T10:36:24.390Z,8.63
2024-02-24T10:38:55.751Z,8.77
2024-02-24T10:41:26.599Z,8.71
2024-02-24T10:44:02.007Z,8.77
2024-02-24T10:46:36.773Z,8.90
2024-02-24T10:49:04.109Z,8.57
2024-02-24T10:51:33.846Z,8.98
2024-02-24T10:54:07.109Z,9.02
2024-02-24T10:56:34.087Z,9.12
2024-02-24T10:59:11.280Z,8.61
2024-02-24T11:01:47.109Z,8.63
2024-02-24T11:04:16.661Z,8.65
2024-02-24T11:06:53.129Z,8.60
2024-02-24T11:09:26.035Z,8.98
2024-02-24T11:11:52.893Z,8.63
2024-02-24T11:14:22.817Z,8.84
2024-02-24T11:16:52.001Z,8.84
2024-02-24T11:19:44.806Z,9.04
2024-02-24T11:22:22.648Z,9.63
2024-02-24T11:25:01.647Z,9.79
2024-02-24T11:27:33.047Z,9.74
2024-02-24T11:30:00.522Z,9.57
2024-02-24T11:32:27.612Z,9.30
2024-02-24T11:34:57.022Z,9.75
2024-02-24T11:37:24.199Z,9.47
2024-02-24T11:39:53.021Z,9.29
2024-02-24T11:42:22.541Z,9.48
2024-02-24T11:44:51.126Z,9.56
2024-02-24T11:47:20.126Z,9.44
2024-02-24T11:49:49.270Z,9.57
2024-02-24T11:52:16.815Z,8.99
2024-02-24T11:54:45.107Z,9.28
2024-02-24T11:57:15.388Z,9.01
2024-02-24T11:59:42.179Z,8.96
2024-02-24T12:02:09.372Z,9.07
2024-02-24T12:04:36.474Z,9.50
2024-02-24T12:07:05.529Z,9.80
2024-02-24T12:09:32.471Z,9.56
2024-02-24T12:11:59.470Z,9.65
2024-02-24T12:14:30.396Z,9.90
2024-02-24T12:16:58.506Z,10.12
2024-02-24T12:19:28.914Z,10.05
2024-02-24T12:21:56.362Z,10.03
2024-02-24T12:24:28.132Z,9.79
2024-02-24T12:26:59.594Z,10.17
2024-02-24T12:29:26.495Z,10.26
2024-02-24T12:31:53.230Z,10.53
2024-02-24T12:34:21.055Z,10.68
2024-02-24T12:36:57.771Z,10.30
2024-02-24T12:39:26.048Z,10.34
2024-02-24T12:41:56.445Z,9.84
2024-02-24T12:44:23.506Z,10.14
2024-02-24T12:46:50.545Z,10.41
2024-02-24T12:49:17.531Z,10.73
2024-02-24T12:51:53.734Z,10.37
2024-02-24T12:54:20.517Z,9.89
2024-02-24T12:56:47.526Z,9.87
2024-02-24T12:59:14.282Z,10.24
2024-02-24T13:01:41.192Z,10.49
2024-02-24T13:04:08.038Z,9.95
2024-02-24T13:06:35.383Z,10.34
2024-02-24T13:09:02.282Z,10.08
2024-02-24T13:11:29.170Z,10.01
2024-02-24T13:13:56.017Z,9.95
2024-02-24T13:16:22.819Z,10.08
2024-02-24T13:18:49.575Z,9.90
2024-02-24T13:21:16.467Z,9.77
2024-02-24T13:23:43.209Z,9.75
2024-02-24T13:26:10.096Z,9.62
2024-02-24T13:28:36.844Z,9.70
2024-02-24T13:31:03.653Z,10.09
2024-02-24T13:33:31.121Z,10.31
2024-02-24T13:35:58.459Z,10.48
2024-02-24T13:38:25.504Z,10.44
2024-02-24T13:40:52.592Z,10.42
2024-02-24T13:43:19.897Z,10.57
2024-02-24T13:45:46.797Z,10.15
2024-02-24T13:48:13.642Z,10.30
2024-02-24T13:50:41.221Z,10.87
2024-02-24T13:53:10.300Z,10.78
2024-02-24T13:55:38.409Z,10.45
2024-02-24T13:58:05.890Z,10.84
2024-02-24T14:00:32.740Z,10.92
2024-02-24T14:03:00.627Z,10.93
2024-02-24T14:05:27.419Z,10.91
2024-02-24T14:07:54.314Z,10.29
2024-02-24T14:10:21.281Z,10.41
2024-02-24T14:12:47.984Z,10.48
2024-02-24T14:15:14.780Z,9.89
2024-02-24T14:17:41.538Z,10.28
2024-02-24T14:20:19.500Z,10.69
2024-02-24T14:22:52.049Z,10.55
2024-02-24T14:25:18.762Z,10.73
2024-02-24T14:27:45.545Z,10.70
2024-02-24T14:30:12.550Z,11.00
2024-02-24T14:32:39.393Z,10.44
2024-02-24T14:35:15.172Z,10.50
2024-02-24T14:37:41.990Z,10.04
2024-02-24T14:40:09.303Z,10.41
2024-02-24T14:42:36.401Z,10.14
2024-02-24T14:45:03.632Z,10.26
2024-02-24T14:47:32.362Z,10.37
2024-02-24T14:49:59.203Z,10.74
2024-02-24T14:52:26.190Z,10.27
2024-02-24T14:54:53.778Z,10.08
2024-02-24T14:57:20.588Z,10.34
2024-02-24T14:59:47.377Z,10.65
2024-02-24T15:02:25.564Z,10.87
2024-02-24T15:05:01.789Z,10.96
2024-02-24T15:07:28.657Z,10.96
2024-02-24T15:09:55.599Z,10.52
2024-02-24T15:12:22.611Z,10.57
2024-02-24T15:14:49.343Z,10.59
2024-02-24T15:17:16.009Z,10.40
2024-02-24T15:19:46.213Z,10.56
2024-02-24T15:22:13.013Z,10.48
2024-02-24T15:24:39.738Z,10.44
2024-02-24T15:27:06.731Z,10.29
2024-02-24T15:29:33.507Z,10.12
2024-02-24T15:32:00.351Z,10.08
2024-02-24T15:34:28.480Z,10.17
2024-02-24T15:36:55.248Z,10.24
2024-02-24T15:39:25.065Z,10.09
2024-02-24T15:41:51.998Z,10.34
2024-02-24T15:44:18.827Z,10.33
2024-02-24T15:46:47.304Z,10.24
2024-02-24T15:49:15.038Z,10.13
2024-02-24T15:51:41.862Z,10.00
2024-02-24T15:54:08.892Z,9.96
2024-02-24T15:56:35.735Z,9.72
2024-02-24T15:59:02.873Z,9.90
2024-02-24T16:01:29.725Z,10.08
2024-02-24T16:03:57.447Z,9.91
2024-02-24T16:06:25.309Z,10.10
2024-02-24T16:08:58.177Z,10.25
2024-02-24T16:11:25.147Z,10.05
2024-02-24T16:13:52.021Z,9.98
2024-02-24T16:16:21.626Z,9.97
2024-02-24T16:18:49.869Z,10.04
2024-02-24T16:21:16.745Z,9.86
2024-02-24T16:23:43.480Z,9.96
2024-02-24T16:26:10.936Z,9.92
2024-02-24T16:28:37.673Z,9.99
2024-02-24T16:31:04.517Z,9.88
2024-02-24T16:33:31.595Z,9.85
2024-02-24T16:35:58.545Z,9.79
2024-02-24T16:38:25.503Z,9.80
2024-02-24T16:40:52.321Z,9.85
2024-02-24T16:43:19.048Z,9.83
2024-02-24T16:45:45.993Z,9.89
2024-02-24T16:48:16.976Z,9.80
2024-02-24T16:50:44.154Z,9.80
2024-02-24T16:53:13.355Z,9.64
2024-02-24T16:55:40.086Z,9.64
2024-02-24T16:58:07.890Z,9.86
2024-02-24T17:00:35.661Z,9.87
2024-02-24T17:03:02.803Z,9.82
2024-02-24T17:05:29.548Z,9.68
2024-02-24T17:07:56.251Z,9.77
2024-02-24T17:10:23.064Z,9.67
2024-02-24T17:12:50.150Z,9.50
2024-02-24T17:15:16.967Z,9.56
2024-02-24T17:17:44.606Z,9.65
2024-02-24T17:20:11.666Z,9.36
2024-02-24T17:22:39.870Z,9.50
2024-02-24T17:25:07.319Z,9.57
2024-02-24T17:27:34.102Z,9.30
2024-02-24T17:30:01.029Z,9.27
2024-02-24T17:32:27.855Z,9.29
2024-02-24T17:34:55.066Z,9.09
2024-02-24T17:37:22.619Z,9.09
2024-02-24T17:39:53.489Z,9.22
2024-02-24T17:42:20.249Z,9.05
2024-02-24T17:44:47.009Z,8.95
2024-02-24T17:47:13.882Z,8.98
2024-02-24T17:49:41.715Z,8.91
2024-02-24T17:52:08.441Z,8.87
2024-02-24T17:54:35.161Z,8.81
2024-02-24T17:57:01.917Z,8.90
2024-02-24T17:59:28.949Z,8.85
2024-02-24T18:01:58.089Z,9.05
2024-02-24T18:04:25.979Z,9.13
2024-02-24T18:06:53.709Z,8.95
2024-02-24T18:09:21.677Z,8.96
2024-02-24T18:11:49.117Z,8.83
2024-02-24T18:14:15.833Z,8.97
2024-02-24T18:16:43.035Z,8.75
2024-02-24T18:19:10.750Z,8.69
2024-02-24T18:21:37.776Z,8.79
2024-02-24T18:24:04.844Z,8.90
2024-02-24T18:26:32.951Z,8.97
2024-02-24T18:29:02.188Z,8.95
2024-02-24T18:31:32.074Z,8.95
2024-02-24T18:33:59.114Z,8.98
2024-02-24T18:36:27.024Z,8.98
2024-02-24T18:38:54.725Z,9.04
2024-02-24T18:41:21.557Z,8.94
2024-02-24T18:43:49.218Z,8.87
2024-02-24T18:46:16.074Z,8.85
2024-02-24T18:48:42.963Z,8.82
2024-02-24T18:51:09.954Z,8.89
2024-02-24T18:53:36.985Z,8.84
2024-02-24T18:56:04.471Z,8.90
2024-02-24T18:58:31.619Z,8.81
2024-02-24T19:01:04.317Z,8.72
2024-02-24T19:03:31.591Z,8.53
2024-02-24T19:05:59.613Z,8.37
2024-02-24T19:08:26.461Z,8.35
2024-02-24T19:10:53.209Z,8.51
2024-02-24T19:13:20.071Z,8.47
2024-02-24T19:15:47.218Z,8.57
2024-02-24T19:18:14.831Z,8.51
2024-02-24T19:20:42.114Z,8.50
2024-02-24T19:23:09.390Z,8.63
2024-02-24T19:25:36.121Z,8.62
2024-02-24T19:28:03.164Z,8.79
2024-02-24T19:30:30.378Z,8.81
2024-02-24T19:32:58.671Z,8.74
2024-02-24T19:35:25.667Z,8.77
2024-02-24T19:37:52.424Z,8.82
2024-02-24T19:40:21.392Z,8.90
2024-02-24T19:42:48.209Z,8.65
2024-02-24T19:45:15.029Z,8.56
2024-02-24T19:47:42.165Z,8.63
2024-02-24T19:50:09.381Z,8.61
2024-02-24T19:52:36.063Z,8.52
2024-02-24T19:55:02.973Z,8.53
2024-02-24T19:57:30.880Z,8.24
2024-02-24T19:59:58.377Z,8.51
2024-02-24T20:02:25.637Z,8.27
2024-02-24T20:04:52.690Z,8.31
2024-02-24T20:07:19.623Z,8.18
2024-02-24T20:09:47.461Z,8.28
2024-02-24T20:12:14.494Z,8.14
2024-02-24T20:14:41.637Z,8.04
2024-02-24T20:17:08.475Z,8.35
2024-02-24T20:19:35.810Z,8.29
2024-02-24T20:22:04.394Z,8.43
2024-02-24T20:24:31.087Z,8.47
2024-02-24T20:26:58.081Z,8.29
2024-02-24T20:29:24.863Z,8.06
2024-02-24T20:31:54.119Z,8.24
2024-02-24T20:34:21.032Z,8.48
2024-02-24T20:36:47.812Z,8.34
2024-02-24T20:39:14.608Z,7.86
2024-02-24T20:41:44.327Z,8.26
2024-02-24T20:44:11.443Z,8.21
2024-02-24T20:46:48.727Z,8.15
2024-02-24T20:49:18.562Z,8.27
2024-02-24T20:51:45.720Z,8.27
2024-02-24T20:54:12.453Z,8.41
2024-02-24T20:56:39.295Z,8.30
2024-02-24T20:59:06.121Z,8.35
2024-02-24T21:01:33.227Z,8.27
2024-02-24T21:04:00.164Z,8.01
2024-02-24T21:06:27.272Z,8.13
2024-02-24T21:08:54.154Z,8.17
2024-02-24T21:11:21.016Z,8.08
2024-02-24T21:13:47.773Z,8.03
2024-02-24T21:16:14.523Z,8.02
2024-02-24T21:18:41.530Z,8.15
2024-02-24T21:21:08.739Z,8.30
2024-02-24T21:23:35.455Z,8.09
2024-02-24T21:26:09.038Z,7.86
2024-02-24T21:28:37.287Z,8.13
2024-02-24T21:31:04.176Z,8.18
2024-02-24T21:33:31.148Z,8.24
2024-02-24T21:35:58.166Z,8.02
2024-02-24T21:38:24.987Z,8.21
2024-02-24T21:40:51.735Z,8.15
2024-02-24T21:43:18.474Z,8.15
2024-02-24T21:45:46.804Z,7.81
2024-02-24T21:48:16.185Z,7.91
2024-02-24T21:50:44.479Z,7.70
2024-02-24T21:53:11.160Z,7.77
2024-02-24T21:55:37.893Z,7.72
2024-02-24T21:58:05.026Z,7.92
2024-02-24T22:00:31.993Z,7.97
2024-02-24T22:03:02.196Z,8.06
2024-02-24T22:05:29.118Z,7.38
2024-02-24T22:07:55.920Z,7.69
2024-02-24T22:10:23.174Z,7.79
2024-02-24T22:12:50.816Z,7.83
2024-02-24T22:15:19.528Z,7.87
2024-02-24T22:17:47.484Z,7.80
2024-02-24T22:20:14.879Z,7.71
2024-02-24T22:22:41.873Z,7.62
2024-02-24T22:25:10.183Z,7.50
2024-02-24T22:27:38.522Z,7.78
2024-02-24T22:30:13.346Z,7.61
2024-02-24T22:32:44.204Z,7.66
2024-02-24T22:35:11.371Z,7.84
2024-02-24T22:37:38.880Z,7.90
2024-02-24T22:40:07.035Z,7.61
2024-02-24T22:42:36.992Z,7.58
2024-02-24T22:45:07.624Z,7.86
2024-02-24T22:47:34.796Z,8.02
2024-02-24T22:50:01.654Z,7.81
2024-02-24T22:52:28.701Z,7.63
2024-02-24T22:54:55.427Z,7.74
2024-02-24T22:57:23.076Z,7.53
2024-02-24T22:59:49.875Z,7.54
2024-02-24T23:02:16.748Z,7.34
2024-02-24T23:04:43.494Z,7.36
2024-02-24T23:07:10.449Z,7.29
2024-02-24T23:09:37.384Z,7.48
2024-02-24T23:12:04.508Z,7.53
2024-02-24T23:14:31.566Z,7.27
2024-02-24T23:16:58.269Z,7.48
2024-02-24T23:19:25.232Z,7.44
2024-02-24T23:21:52.031Z,7.48
2024-02-24T23:24:18.717Z,7.51
2024-02-24T23:26:45.676Z,7.27
2024-02-24T23:29:12.734Z,7.35
2024-02-24T23:31:39.595Z,7.07
2024-02-24T23:34:07.048Z,7.19
2024-02-24T23:36:33.882Z,7.19
2024-02-24T23:39:01.086Z,6.99
2024-02-24T23:41:28.028Z,7.17
2024-02-24T23:43:54.758Z,7.22
2024-02-24T23:46:21.539Z,6.82
2024-02-24T23:48:48.588Z,6.87
2024-02-24T23:51:15.849Z,6.88
2024-02-24T23:53:42.809Z,7.30
2024-02-24T23:56:10.398Z,7.09
2024-02-24T23:58:37.485Z,6.79
